K.pluto — 3EYQ3 — position and weather

sailwx.info

Track history (hours):
 
Tides and Currents Weather Stations Pressure Air Temp Water Temp Dewpoint Dewpoint Depression Visibility Wind Speed Wind Dir Waves Ship Positions

K.pluto

Last reported at 2017-Feb-17 05:18 UTC. Time now 2017-Feb-24 08:11 UTC.
Position N 33°16' E 132°02'.

Length 170 m; draft 7 m.

Type: Cargo ship. MMSI: 373504000.

Date/timePositionNaut miles runAvg speedWind from/ knotsBaromVisibWave heightAir tempDewpointWater temp
2017-Feb-17 05:18N 33°16' E 132°02'  
2017-Feb-14 20:22N 33°10' E 132°06'48910.4
2017-Feb-12 21:26N 31°04' E 122°49'21 0.7
2017-Feb-11 13:33N 31°06' E 122°24'9 9.3
2017-Feb-11 12:34N 31°09' E 122°14'1313.5
2017-Feb-11 11:34N 31°15' E 121°60'1514.7
2017-Feb-11 10:33N 31°19' E 121°43'1111.3
2017-Feb-11 09:33N 31°25' E 121°32'1010.3
2017-Feb-11 08:33N 31°31' E 121°23'1211.6
2017-Feb-11 07:33N 31°39' E 121°13'10 9.6
2017-Feb-11 06:33N 31°45' E 121°04'28 9.1
2017-Feb-11 03:27N 32°00' E 120°36'2 2.4
2017-Feb-11 02:32N 32°01' E 120°33'  
Track history (hours):
 
Tides and Currents Weather Stations Pressure Air Temp Water Temp Dewpoint Dewpoint Depression Visibility Wind Speed Wind Dir Waves Ship Positions

K.pluto

Last reported at 2017-Feb-17 05:18 UTC. Time now 2017-Feb-24 08:11 UTC.
Position N 33°16' E 132°02'.

Length 170 m; draft 7 m.

Type: Cargo ship. MMSI: 373504000.

Date/timePositionNaut miles runAvg speedWind from/ knotsBaromVisibWave heightAir tempDewpointWater temp
2017-Feb-17 05:18N 33°16' E 132°02'  
2017-Feb-14 20:22N 33°10' E 132°06'48910.4
2017-Feb-12 21:26N 31°04' E 122°49'21 0.7
2017-Feb-11 13:33N 31°06' E 122°24'9 9.3
2017-Feb-11 12:34N 31°09' E 122°14'1313.5
2017-Feb-11 11:34N 31°15' E 121°60'1514.7
2017-Feb-11 10:33N 31°19' E 121°43'1111.3
2017-Feb-11 09:33N 31°25' E 121°32'1010.3
2017-Feb-11 08:33N 31°31' E 121°23'1211.6
2017-Feb-11 07:33N 31°39' E 121°13'10 9.6
2017-Feb-11 06:33N 31°45' E 121°04'28 9.1
2017-Feb-11 03:27N 32°00' E 120°36'2 2.4
2017-Feb-11 02:32N 32°01' E 120°33'  

Dump ship's entire track history